createdAt,value
2017-04-24T00:00:10.628Z,0
2017-04-24T00:00:51.271Z,0
2017-04-24T00:01:31.883Z,0
2017-04-24T00:02:12.434Z,0
2017-04-24T00:02:53.052Z,0
2017-04-24T00:03:33.643Z,0
2017-04-24T00:04:14.249Z,0
2017-04-24T00:04:54.887Z,0
2017-04-24T00:05:35.465Z,0
2017-04-24T00:06:16.121Z,0
2017-04-24T00:06:56.694Z,0
2017-04-24T00:07:37.313Z,0
2017-04-24T00:08:17.988Z,0
2017-04-24T00:08:58.556Z,0
2017-04-24T00:09:39.203Z,0
2017-04-24T00:10:19.784Z,0
2017-04-24T00:11:00.378Z,0
2017-04-24T00:11:41.197Z,0
2017-04-24T00:12:21.788Z,0
2017-04-24T00:13:02.378Z,0
2017-04-24T00:13:43.044Z,0
2017-04-24T00:14:23.633Z,0
2017-04-24T00:15:04.258Z,0
2017-04-24T00:15:44.893Z,0
2017-04-24T00:16:25.503Z,0
2017-04-24T00:17:06.105Z,0
2017-04-24T00:17:46.713Z,0
2017-04-24T00:18:27.301Z,0
2017-04-24T00:19:07.897Z,0
2017-04-24T00:19:48.510Z,0
2017-04-24T00:20:29.166Z,0
2017-04-24T00:21:09.851Z,0
2017-04-24T00:21:50.408Z,0
2017-04-24T00:22:30.999Z,0
2017-04-24T00:23:11.568Z,0
2017-04-24T00:23:52.168Z,0
2017-04-24T00:24:32.787Z,0
2017-04-24T00:25:13.416Z,0
2017-04-24T00:25:54.030Z,0
2017-04-24T00:26:34.593Z,0
2017-04-24T00:27:15.188Z,0
2017-04-24T00:27:55.782Z,0
2017-04-24T00:28:36.365Z,0
2017-04-24T00:29:16.929Z,0
2017-04-24T00:29:57.512Z,0
2017-04-24T00:30:38.085Z,0
2017-04-24T00:31:18.656Z,0
2017-04-24T00:31:59.209Z,0
2017-04-24T00:32:39.826Z,0
2017-04-24T00:33:20.380Z,0
2017-04-24T00:34:00.951Z,0
2017-04-24T00:34:41.537Z,0
2017-04-24T00:35:22.121Z,0
2017-04-24T00:36:02.707Z,0
2017-04-24T00:36:43.283Z,0
2017-04-24T00:37:23.870Z,0
2017-04-24T00:38:04.480Z,0
2017-04-24T00:38:45.063Z,0
2017-04-24T00:39:25.694Z,0
2017-04-24T00:40:06.277Z,0
2017-04-24T00:40:46.849Z,0
2017-04-24T00:41:27.481Z,0
2017-04-24T00:42:08.052Z,0
2017-04-24T00:42:48.625Z,0
2017-04-24T00:43:29.212Z,0
2017-04-24T00:44:09.779Z,0
2017-04-24T00:44:50.360Z,0
2017-04-24T00:45:31.000Z,0
2017-04-24T00:46:11.570Z,0
2017-04-24T00:46:52.160Z,0
2017-04-24T00:47:32.769Z,0
2017-04-24T00:48:13.360Z,0
2017-04-24T00:48:53.944Z,0
2017-04-24T00:49:34.577Z,0
2017-04-24T00:50:15.162Z,0
2017-04-24T00:50:55.752Z,0
2017-04-24T00:51:36.348Z,0
2017-04-24T00:52:16.986Z,0
2017-04-24T00:52:57.648Z,0
2017-04-24T00:53:38.269Z,0
2017-04-24T00:54:18.906Z,0
2017-04-24T00:54:59.497Z,0
2017-04-24T00:55:40.115Z,0
2017-04-24T00:56:20.685Z,0
2017-04-24T00:57:01.310Z,0
2017-04-24T00:57:41.907Z,0
2017-04-24T00:58:22.493Z,0
2017-04-24T00:59:03.060Z,0
2017-04-24T00:59:43.651Z,0
2017-04-24T01:00:24.228Z,0
2017-04-24T01:01:04.799Z,0
2017-04-24T01:01:45.379Z,0
2017-04-24T01:02:25.983Z,0
2017-04-24T01:03:06.579Z,0
2017-04-24T01:03:47.154Z,0
2017-04-24T01:04:27.729Z,0
2017-04-24T01:05:08.327Z,0
2017-04-24T01:05:48.907Z,0
2017-04-24T01:06:29.478Z,0
2017-04-24T01:07:10.052Z,0
2017-04-24T01:07:50.646Z,0
2017-04-24T01:08:31.235Z,0
2017-04-24T01:09:11.837Z,0
2017-04-24T01:09:52.415Z,0
2017-04-24T01:10:33.013Z,0
2017-04-24T01:11:13.585Z,0
2017-04-24T01:11:54.190Z,0
2017-04-24T01:12:34.831Z,0
2017-04-24T01:13:15.375Z,0
2017-04-24T01:13:55.995Z,0
2017-04-24T01:14:36.603Z,0
2017-04-24T01:15:17.171Z,0
2017-04-24T01:15:57.763Z,0
2017-04-24T01:16:38.406Z,0
2017-04-24T01:17:18.983Z,0
2017-04-24T01:17:59.548Z,0
2017-04-24T01:18:40.142Z,0
2017-04-24T01:19:20.722Z,0
2017-04-24T01:20:01.290Z,0
2017-04-24T01:20:41.867Z,0
2017-04-24T01:21:22.481Z,0
2017-04-24T01:22:03.021Z,0
2017-04-24T01:22:43.588Z,0
2017-04-24T01:23:24.157Z,0
2017-04-24T01:24:04.772Z,0
2017-04-24T01:24:45.417Z,0
2017-04-24T01:25:25.990Z,0
2017-04-24T01:26:06.564Z,0
2017-04-24T01:26:47.138Z,0
2017-04-24T01:27:27.756Z,0
2017-04-24T01:28:08.364Z,0
2017-04-24T01:28:48.925Z,0
2017-04-24T01:29:29.558Z,0
2017-04-24T01:30:10.135Z,0
2017-04-24T01:30:50.751Z,0
2017-04-24T01:31:31.356Z,0
2017-04-24T01:32:11.929Z,0
2017-04-24T01:32:52.547Z,0
2017-04-24T01:33:33.150Z,0
2017-04-24T01:34:13.752Z,0
2017-04-24T01:34:54.329Z,0
2017-04-24T01:35:34.934Z,0
2017-04-24T01:36:15.512Z,0
2017-04-24T01:36:56.100Z,0
2017-04-24T01:37:36.671Z,0
2017-04-24T01:38:17.264Z,0
2017-04-24T01:38:57.868Z,0
2017-04-24T01:39:38.464Z,0
2017-04-24T01:40:19.059Z,0
2017-04-24T01:40:59.668Z,0
2017-04-24T01:41:40.233Z,0
2017-04-24T01:42:20.844Z,0
2017-04-24T01:43:01.435Z,0
2017-04-24T01:43:42.061Z,0
2017-04-24T01:44:22.631Z,0
2017-04-24T01:45:03.290Z,0
2017-04-24T01:45:43.903Z,0
2017-04-24T01:46:24.475Z,0
2017-04-24T01:47:05.056Z,0
2017-04-24T01:47:45.621Z,0
2017-04-24T01:48:26.206Z,0
2017-04-24T01:49:06.815Z,0
2017-04-24T01:49:47.371Z,0
2017-04-24T01:50:27.976Z,0
2017-04-24T01:51:08.561Z,0
2017-04-24T01:51:49.138Z,0
2017-04-24T01:52:29.767Z,0
2017-04-24T01:53:10.357Z,0
2017-04-24T01:53:50.981Z,0
2017-04-24T01:54:31.561Z,0
2017-04-24T01:55:12.142Z,0
2017-04-24T01:55:52.787Z,0
2017-04-24T01:56:33.361Z,0
2017-04-24T01:57:14.010Z,0
2017-04-24T01:57:54.650Z,0
2017-04-24T01:58:35.245Z,0
2017-04-24T01:59:15.833Z,0
2017-04-24T01:59:56.416Z,0
2017-04-24T02:00:37.018Z,0
2017-04-24T02:01:17.661Z,0
2017-04-24T02:01:58.259Z,0
2017-04-24T02:02:38.827Z,0
2017-04-24T02:03:19.411Z,0
2017-04-24T02:03:59.995Z,0
2017-04-24T02:04:40.559Z,0
2017-04-24T02:05:21.135Z,0
2017-04-24T02:06:01.707Z,0
2017-04-24T02:06:42.289Z,0
2017-04-24T02:07:22.870Z,0
2017-04-24T02:08:03.437Z,0
2017-04-24T02:08:44.027Z,0
2017-04-24T02:09:24.614Z,0
2017-04-24T02:10:05.192Z,0
2017-04-24T02:10:45.798Z,0
2017-04-24T02:11:26.399Z,0
2017-04-24T02:12:07.014Z,0
2017-04-24T02:12:47.574Z,0
2017-04-24T02:13:28.153Z,0
2017-04-24T02:14:08.797Z,0
2017-04-24T02:14:49.416Z,0
2017-04-24T02:15:29.982Z,0
2017-04-24T02:16:10.570Z,0
2017-04-24T02:16:51.164Z,0
2017-04-24T02:17:31.733Z,0
2017-04-24T02:18:12.347Z,0
2017-04-24T02:18:52.938Z,0
2017-04-24T02:19:33.538Z,0
2017-04-24T02:20:14.108Z,0
2017-04-24T02:20:54.700Z,0
2017-04-24T02:21:35.344Z,0
2017-04-24T02:22:15.945Z,0
2017-04-24T02:22:56.542Z,0
2017-04-24T02:23:37.125Z,0
2017-04-24T02:24:17.726Z,0
2017-04-24T02:24:58.300Z,0
2017-04-24T02:25:38.872Z,0
2017-04-24T02:26:19.476Z,0
2017-04-24T02:27:00.079Z,0
2017-04-24T02:27:40.659Z,0
2017-04-24T02:28:21.236Z,0
2017-04-24T02:29:01.830Z,0
2017-04-24T02:29:42.481Z,0
2017-04-24T02:30:23.057Z,0
2017-04-24T02:31:03.669Z,0
2017-04-24T02:31:44.260Z,0
2017-04-24T02:32:24.828Z,0
2017-04-24T02:33:05.402Z,0
2017-04-24T02:33:45.992Z,0
2017-04-24T02:34:26.550Z,0
2017-04-24T02:35:07.146Z,0
2017-04-24T02:35:47.703Z,0
2017-04-24T02:36:28.282Z,0
2017-04-24T02:37:08.851Z,0
2017-04-24T02:37:49.438Z,0
2017-04-24T02:38:30.014Z,0
2017-04-24T02:39:10.614Z,0
2017-04-24T02:39:51.250Z,0
2017-04-24T02:40:31.824Z,0
2017-04-24T02:41:12.408Z,0
2017-04-24T02:41:52.994Z,0
2017-04-24T02:42:33.564Z,0
2017-04-24T02:43:14.149Z,0
2017-04-24T02:43:54.739Z,0
2017-04-24T02:44:35.315Z,0
2017-04-24T02:45:15.896Z,0
2017-04-24T02:45:56.485Z,0
2017-04-24T02:46:37.063Z,0
2017-04-24T02:47:17.672Z,0
2017-04-24T02:47:58.243Z,0
2017-04-24T02:48:38.839Z,0
2017-04-24T02:49:19.445Z,0
2017-04-24T02:50:00.041Z,0
2017-04-24T02:50:40.643Z,0
2017-04-24T02:51:21.224Z,0
2017-04-24T02:52:01.851Z,0
2017-04-24T02:52:42.415Z,0
2017-04-24T02:53:22.997Z,0
2017-04-24T02:54:03.573Z,0
2017-04-24T02:54:44.137Z,0
2017-04-24T02:55:24.727Z,0
2017-04-24T02:56:05.322Z,0
2017-04-24T02:56:45.914Z,0
2017-04-24T02:57:26.482Z,0
2017-04-24T02:58:07.074Z,0
2017-04-24T02:58:47.666Z,0
2017-04-24T02:59:28.258Z,0
2017-04-24T03:00:08.845Z,0
2017-04-24T03:00:49.443Z,0
2017-04-24T03:01:30.049Z,0
2017-04-24T03:02:10.722Z,0
2017-04-24T03:02:51.294Z,0
2017-04-24T03:03:31.872Z,0
2017-04-24T03:04:12.468Z,0
2017-04-24T03:04:53.067Z,0
2017-04-24T03:05:33.663Z,0
2017-04-24T03:06:14.245Z,0
2017-04-24T03:06:54.814Z,0
2017-04-24T03:07:35.427Z,0
2017-04-24T03:08:16.004Z,0
2017-04-24T03:08:56.586Z,0
2017-04-24T03:09:37.154Z,0
2017-04-24T03:10:17.743Z,0
2017-04-24T03:10:58.353Z,0
2017-04-24T03:11:38.953Z,0
2017-04-24T03:12:19.549Z,0
2017-04-24T03:14:37.852Z,0
2017-04-24T03:15:18.450Z,0
2017-04-24T03:15:59.154Z,0
2017-04-24T03:16:39.714Z,0
2017-04-24T03:17:20.324Z,0
2017-04-24T03:18:00.895Z,4
2017-04-24T03:18:41.468Z,4
2017-04-24T03:19:22.065Z,4
2017-04-24T03:20:02.683Z,0
2017-04-24T03:20:43.272Z,0
2017-04-24T03:21:23.874Z,4
2017-04-24T03:22:04.484Z,4
2017-04-24T03:22:45.061Z,4
2017-04-24T03:23:25.733Z,4
2017-04-24T03:24:06.295Z,4
2017-04-24T03:24:46.911Z,4
2017-04-24T03:25:27.485Z,4
2017-04-24T03:26:08.059Z,4
2017-04-24T03:26:48.672Z,8
2017-04-24T03:27:29.279Z,8
2017-04-24T03:28:09.860Z,8
2017-04-24T03:28:50.433Z,8
2017-04-24T03:29:31.011Z,12
2017-04-24T03:30:11.594Z,12
2017-04-24T03:30:52.146Z,12
2017-04-24T03:31:32.747Z,16
2017-04-24T03:32:13.314Z,16
2017-04-24T03:32:53.899Z,16
2017-04-24T03:33:34.476Z,16
2017-04-24T03:34:15.122Z,20
2017-04-24T03:34:55.685Z,20
2017-04-24T03:35:36.313Z,24
2017-04-24T03:36:16.900Z,28
2017-04-24T03:36:57.466Z,28
2017-04-24T03:37:38.031Z,32
2017-04-24T03:38:18.646Z,36
2017-04-24T03:38:59.246Z,36
2017-04-24T03:39:39.840Z,40
2017-04-24T03:40:20.407Z,40
2017-04-24T03:41:00.998Z,48
2017-04-24T03:41:41.566Z,48
2017-04-24T03:42:22.136Z,52
2017-04-24T03:43:02.723Z,56
2017-04-24T03:43:43.295Z,64
2017-04-24T03:44:23.864Z,68
2017-04-24T03:45:04.448Z,72
2017-04-24T03:45:45.014Z,76
2017-04-24T03:46:25.617Z,84
2017-04-24T03:47:06.189Z,84
2017-04-24T03:47:46.828Z,92
2017-04-24T03:48:27.403Z,100
2017-04-24T03:49:07.972Z,104
2017-04-24T03:49:48.600Z,112
2017-04-24T03:50:29.153Z,116
2017-04-24T03:51:09.725Z,124
2017-04-24T03:51:50.364Z,128
2017-04-24T03:52:30.970Z,136
2017-04-24T03:53:11.571Z,140
2017-04-24T03:53:52.156Z,152
2017-04-24T03:54:32.761Z,160
2017-04-24T03:55:13.343Z,168
2017-04-24T03:55:53.924Z,172
2017-04-24T03:56:34.506Z,184
2017-04-24T03:57:15.053Z,192
2017-04-24T03:57:55.621Z,204
2017-04-24T03:58:36.188Z,212
2017-04-24T03:59:16.785Z,228
2017-04-24T03:59:57.358Z,240
2017-04-24T04:00:37.920Z,252
2017-04-24T04:01:18.492Z,268
2017-04-24T04:01:59.051Z,284
2017-04-24T04:02:39.686Z,296
2017-04-24T04:03:20.281Z,312
2017-04-24T04:04:00.875Z,324
2017-04-24T04:04:41.477Z,344
2017-04-24T04:05:22.058Z,364
2017-04-24T04:06:02.638Z,384
2017-04-24T04:06:43.205Z,408
2017-04-24T04:07:23.798Z,424
2017-04-24T04:08:04.378Z,444
2017-04-24T04:08:44.991Z,464
2017-04-24T04:09:25.625Z,480
2017-04-24T04:10:06.213Z,500
2017-04-24T04:10:46.791Z,516
2017-04-24T04:11:27.382Z,536
2017-04-24T04:12:07.954Z,552
2017-04-24T04:12:48.530Z,568
2017-04-24T04:13:29.131Z,580
2017-04-24T04:14:09.716Z,588
2017-04-24T04:14:50.299Z,592
2017-04-24T04:15:30.880Z,600
2017-04-24T04:16:11.461Z,608
2017-04-24T04:16:52.040Z,616
2017-04-24T04:17:32.629Z,624
2017-04-24T04:18:13.214Z,636
2017-04-24T04:18:53.815Z,652
2017-04-24T04:19:34.403Z,668
2017-04-24T04:20:14.985Z,688
2017-04-24T04:20:55.551Z,708
2017-04-24T04:21:36.126Z,728
2017-04-24T04:22:16.699Z,752
2017-04-24T04:22:57.278Z,776
2017-04-24T04:23:37.858Z,796
2017-04-24T04:24:18.439Z,812
2017-04-24T04:24:59.034Z,828
2017-04-24T04:25:39.602Z,840
2017-04-24T04:26:20.210Z,852
2017-04-24T04:27:00.833Z,856
2017-04-24T04:27:41.400Z,864
2017-04-24T04:28:21.995Z,872
2017-04-24T04:29:02.594Z,880
2017-04-24T04:29:43.172Z,892
2017-04-24T04:30:23.797Z,904
2017-04-24T04:31:04.382Z,920
2017-04-24T04:31:44.984Z,932
2017-04-24T04:32:25.634Z,948
2017-04-24T04:33:06.230Z,968
2017-04-24T04:33:46.863Z,988
2017-04-24T04:34:27.465Z,1004
2017-04-24T04:35:08.049Z,1024
2017-04-24T04:35:48.594Z,1048
2017-04-24T04:36:29.181Z,1072
2017-04-24T04:37:09.784Z,1104
2017-04-24T04:37:50.361Z,1132
2017-04-24T04:38:30.964Z,1168
2017-04-24T04:39:11.529Z,1192
2017-04-24T04:39:52.101Z,1196
2017-04-24T04:40:32.686Z,1208
2017-04-24T04:41:13.278Z,1252
2017-04-24T04:41:53.842Z,1300
2017-04-24T04:42:34.421Z,1348
2017-04-24T04:43:15.011Z,1372
2017-04-24T04:43:55.580Z,1396
2017-04-24T04:44:36.188Z,1404
2017-04-24T04:45:16.883Z,1408
2017-04-24T04:45:57.471Z,1436
2017-04-24T04:46:38.053Z,1468
2017-04-24T04:47:18.648Z,1496
2017-04-24T04:47:59.237Z,1524
2017-04-24T04:48:39.877Z,1560
2017-04-24T04:49:20.450Z,1596
2017-04-24T04:50:01.041Z,1616
2017-04-24T04:50:41.592Z,1632
2017-04-24T04:51:22.165Z,1652
2017-04-24T04:52:02.758Z,1656
2017-04-24T04:52:43.367Z,1656
2017-04-24T04:53:23.944Z,1660
2017-04-24T04:54:04.789Z,1648
2017-04-24T04:54:45.226Z,1656
2017-04-24T04:55:25.799Z,1680
2017-04-24T04:56:06.385Z,1704
2017-04-24T04:56:46.965Z,1728
2017-04-24T04:57:27.558Z,1784
2017-04-24T04:58:08.246Z,1876
2017-04-24T04:58:49.083Z,1988
2017-04-24T04:59:29.933Z,2040
2017-04-24T05:00:10.517Z,2120
2017-04-24T05:00:51.108Z,2220
2017-04-24T05:01:31.682Z,2336
2017-04-24T05:02:12.264Z,2472
2017-04-24T05:02:52.901Z,2504
2017-04-24T05:03:33.479Z,2472
2017-04-24T05:04:14.083Z,2440
2017-04-24T05:04:54.649Z,2484
2017-04-24T05:05:35.271Z,2568
2017-04-24T05:06:15.889Z,2768
2017-04-24T05:06:56.500Z,3164
2017-04-24T05:07:37.079Z,3640
2017-04-24T05:08:17.681Z,4104
2017-04-24T05:08:58.267Z,4380
2017-04-24T05:09:38.884Z,4536
2017-04-24T05:10:19.476Z,4500
2017-04-24T05:11:00.044Z,4388
2017-04-24T05:11:40.628Z,4160
2017-04-24T05:12:21.327Z,3820
2017-04-24T05:13:01.934Z,3612
2017-04-24T05:13:42.540Z,3496
2017-04-24T05:14:23.137Z,3388
2017-04-24T05:15:03.715Z,3520
2017-04-24T05:15:44.422Z,3652
2017-04-24T05:16:25.477Z,3840
2017-04-24T05:17:06.163Z,3976
2017-04-24T05:17:46.866Z,4300
2017-04-24T05:18:27.478Z,4800
2017-04-24T05:19:08.056Z,5244
2017-04-24T05:19:48.688Z,5484
2017-04-24T05:20:29.371Z,5580
2017-04-24T05:21:09.975Z,5660
2017-04-24T05:21:50.564Z,5636
2017-04-24T05:22:31.189Z,5496
2017-04-24T05:23:11.888Z,5324
2017-04-24T05:23:52.486Z,4956
2017-04-24T05:24:33.116Z,4512
2017-04-24T05:25:13.719Z,3972
2017-04-24T05:25:54.309Z,3552
2017-04-24T05:26:34.896Z,3352
2017-04-24T05:27:15.475Z,3288
2017-04-24T05:27:56.058Z,3340
2017-04-24T05:28:36.644Z,3224
2017-04-24T05:29:17.235Z,3188
2017-04-24T05:29:57.809Z,3272
2017-04-24T05:30:38.402Z,3244
2017-04-24T05:31:18.994Z,3412
2017-04-24T05:31:59.571Z,3544
2017-04-24T05:32:40.190Z,3612
2017-04-24T05:33:20.788Z,3588
2017-04-24T05:34:01.384Z,3644
2017-04-24T05:34:41.996Z,3720
2017-04-24T05:35:22.592Z,3780
2017-04-24T05:36:03.262Z,3788
2017-04-24T05:36:43.887Z,3648
2017-04-24T05:37:24.482Z,3632
2017-04-24T05:38:05.097Z,3720
2017-04-24T05:38:45.713Z,3900
2017-04-24T05:39:26.296Z,4200
2017-04-24T05:40:06.874Z,4396
2017-04-24T05:40:47.475Z,4568
2017-04-24T05:41:28.064Z,4732
2017-04-24T05:42:08.642Z,4908
2017-04-24T05:42:49.263Z,5080
2017-04-24T05:43:29.850Z,5320
2017-04-24T05:44:10.422Z,5500
2017-04-24T05:44:51.015Z,5600
2017-04-24T05:45:31.582Z,5668
2017-04-24T05:46:12.177Z,5824
2017-04-24T05:46:52.757Z,5848
2017-04-24T05:47:33.334Z,5836
2017-04-24T05:48:13.907Z,5928
2017-04-24T05:48:54.493Z,6028
2017-04-24T05:49:35.082Z,6148
2017-04-24T05:50:15.666Z,6288
2017-04-24T05:50:56.283Z,6468
2017-04-24T05:51:36.868Z,6676
2017-04-24T05:52:17.463Z,6924
2017-04-24T05:52:58.028Z,7168
2017-04-24T05:53:38.608Z,7516
2017-04-24T05:54:19.185Z,7948
2017-04-24T05:54:59.786Z,8416
2017-04-24T05:55:40.361Z,8992
2017-04-24T05:56:21.010Z,9728
2017-04-24T05:57:01.574Z,10588
2017-04-24T05:57:42.156Z,11592
2017-04-24T05:58:22.761Z,12868
2017-04-24T05:59:03.363Z,15740
2017-04-24T05:59:43.931Z,22880
2017-04-24T06:00:24.557Z,29216
2017-04-24T06:01:05.145Z,35168
2017-04-24T06:01:45.744Z,33248
2017-04-24T06:02:26.315Z,29280
2017-04-24T06:03:06.913Z,28960
2017-04-24T06:03:47.472Z,27040
2017-04-24T06:04:28.071Z,24000
2017-04-24T06:05:08.716Z,21568
2017-04-24T06:05:49.329Z,19744
2017-04-24T06:06:29.904Z,18272
2017-04-24T06:07:10.492Z,19200
2017-04-24T06:07:51.070Z,22272
2017-04-24T06:08:31.721Z,26016
2017-04-24T06:09:12.325Z,29856
2017-04-24T06:09:52.925Z,29248
2017-04-24T06:10:33.552Z,27840
2017-04-24T06:11:14.135Z,28096
2017-04-24T06:11:54.740Z,26624
2017-04-24T06:12:35.406Z,28768
2017-04-24T06:13:16.062Z,32384
2017-04-24T06:13:56.718Z,37824
2017-04-24T06:14:37.291Z,45312
2017-04-24T06:15:17.898Z,53760
2017-04-24T06:15:58.495Z,63744
2017-04-24T06:16:39.138Z,66912
2017-04-24T06:17:19.781Z,70560
2017-04-24T06:18:00.332Z,72448
2017-04-24T06:18:40.943Z,75328
2017-04-24T06:19:21.515Z,80384
2017-04-24T06:20:02.124Z,84768
2017-04-24T06:20:42.742Z,80672
2017-04-24T06:21:23.346Z,79264
2017-04-24T06:22:03.929Z,79520
2017-04-24T06:22:44.546Z,82784
2017-04-24T06:23:25.124Z,77280
2017-04-24T06:24:05.731Z,69824
2017-04-24T06:24:46.378Z,73792
2017-04-24T06:25:26.982Z,69856
2017-04-24T06:26:07.570Z,71264
2017-04-24T06:26:48.231Z,67744
2017-04-24T06:27:28.813Z,45408
2017-04-24T06:28:09.409Z,47904
2017-04-24T06:28:50.024Z,79168
2017-04-24T06:29:30.649Z,81888
2017-04-24T06:30:11.252Z,90016
2017-04-24T06:30:51.891Z,88832
2017-04-24T06:31:32.478Z,92480
2017-04-24T06:32:13.134Z,95072
2017-04-24T06:32:53.780Z,91456
2017-04-24T06:33:34.570Z,86496
2017-04-24T06:34:15.286Z,84704
2017-04-24T06:34:55.914Z,84928
2017-04-24T06:35:36.541Z,92192
2017-04-24T06:36:17.195Z,93472
2017-04-24T06:36:57.855Z,90400
2017-04-24T06:37:38.467Z,91744
2017-04-24T06:38:19.086Z,87520
2017-04-24T06:38:59.736Z,70304
2017-04-24T06:39:40.327Z,74496
2017-04-24T06:40:20.955Z,77888
2017-04-24T06:41:01.573Z,78528
2017-04-24T06:41:42.153Z,77920
2017-04-24T06:42:22.799Z,75520
2017-04-24T06:43:03.383Z,79360
2017-04-24T06:43:43.971Z,85696
2017-04-24T06:44:24.583Z,87840
2017-04-24T06:45:05.208Z,85696
2017-04-24T06:45:45.808Z,83072
2017-04-24T06:46:26.395Z,81664
2017-04-24T06:47:06.998Z,82592
2017-04-24T06:47:47.565Z,77856
2017-04-24T06:48:28.171Z,83552
2017-04-24T06:49:08.776Z,81696
2017-04-24T06:49:49.379Z,86848
2017-04-24T06:50:29.970Z,88384
2017-04-24T06:51:10.560Z,87328
2017-04-24T06:51:51.232Z,83392
2017-04-24T06:52:31.801Z,83968
2017-04-24T06:53:12.462Z,83232
2017-04-24T06:53:53.066Z,84800
2017-04-24T06:54:33.665Z,85088
2017-04-24T06:55:14.257Z,86048
2017-04-24T06:55:54.887Z,87424
2017-04-24T06:56:36.071Z,88224
2017-04-24T06:57:16.930Z,88224
2017-04-24T06:57:57.548Z,86080
2017-04-24T06:58:38.156Z,84224
2017-04-24T06:59:18.834Z,82368
2017-04-24T06:59:59.459Z,83296
2017-04-24T07:00:40.055Z,76992
2017-04-24T07:01:20.667Z,71008
2017-04-24T07:02:01.300Z,63328
2017-04-24T07:02:41.898Z,61984
2017-04-24T07:03:22.804Z,59584
2017-04-24T07:04:03.383Z,64192
2017-04-24T07:04:43.989Z,60320
2017-04-24T07:05:24.537Z,52960
2017-04-24T07:06:05.123Z,53280
2017-04-24T07:06:45.742Z,50400
2017-04-24T07:07:26.345Z,42528
2017-04-24T07:08:06.920Z,45664
2017-04-24T07:08:47.530Z,48864
2017-04-24T07:09:28.120Z,48256
2017-04-24T07:10:10.025Z,49248
2017-04-24T07:10:50.612Z,48896
2017-04-24T07:11:31.207Z,50048
2017-04-24T07:12:13.157Z,48800
2017-04-24T07:12:53.729Z,48800
2017-04-24T07:13:34.300Z,53248
2017-04-24T07:14:15.421Z,56000
2017-04-24T07:14:56.136Z,60736
2017-04-24T07:15:36.725Z,59840
2017-04-24T07:16:17.318Z,60704
2017-04-24T07:16:57.917Z,48768
2017-04-24T07:17:38.519Z,54208
2017-04-24T07:18:19.335Z,70208
2017-04-24T07:18:59.923Z,72672
2017-04-24T07:19:40.502Z,76032
2017-04-24T07:20:21.073Z,76544
2017-04-24T07:21:03.152Z,79136
2017-04-24T07:21:43.727Z,80832
2017-04-24T07:22:24.297Z,82656
2017-04-24T07:23:04.881Z,91104
2017-04-24T07:23:45.483Z,91904
2017-04-24T07:24:26.089Z,92064
2017-04-24T07:25:06.767Z,92000
2017-04-24T07:25:47.390Z,90464
2017-04-24T07:26:28.252Z,81376
2017-04-24T07:27:08.848Z,86496
2017-04-24T07:27:49.894Z,85152
2017-04-24T07:28:30.474Z,53152
2017-04-24T07:29:11.058Z,74336
2017-04-24T07:29:51.675Z,77696
2017-04-24T07:30:32.374Z,89920
2017-04-24T07:31:13.017Z,97440
2017-04-24T07:31:53.632Z,94944
2017-04-24T07:32:34.423Z,94784
2017-04-24T07:33:15.267Z,96960
2017-04-24T07:33:55.898Z,99904
2017-04-24T07:34:36.475Z,100160
2017-04-24T07:35:17.073Z,98112
2017-04-24T07:35:58.083Z,98336
2017-04-24T07:36:38.842Z,98368
2017-04-24T07:37:19.486Z,98176
2017-04-24T07:38:00.087Z,97344
2017-04-24T07:38:41.011Z,99136
2017-04-24T07:39:21.609Z,97984
2017-04-24T07:40:02.211Z,96128
2017-04-24T07:40:43.422Z,97856
2017-04-24T07:41:24.128Z,99744
2017-04-24T07:42:05.203Z,95264
2017-04-24T07:42:45.804Z,91200
2017-04-24T07:43:26.395Z,90656
2017-04-24T07:44:06.980Z,93024
2017-04-24T07:44:47.676Z,91104
2017-04-24T07:45:28.316Z,89760
2017-04-24T07:46:08.923Z,87680
2017-04-24T07:46:49.544Z,85952
2017-04-24T07:47:30.179Z,82944
2017-04-24T07:48:10.822Z,82976
2017-04-24T07:48:51.421Z,80512
2017-04-24T07:49:32.033Z,79360
2017-04-24T07:50:12.625Z,78080
2017-04-24T07:50:53.365Z,75456
2017-04-24T07:51:33.981Z,71200
2017-04-24T07:52:14.573Z,64896
2017-04-24T07:52:55.155Z,61952
2017-04-24T07:53:35.729Z,61120
2017-04-24T07:54:16.321Z,60640
2017-04-24T07:54:56.903Z,60032
2017-04-24T07:55:37.581Z,62912
2017-04-24T07:56:18.684Z,62880
2017-04-24T07:56:59.721Z,65088
2017-04-24T07:57:40.754Z,64736
2017-04-24T07:58:21.361Z,67360
2017-04-24T07:59:01.995Z,75648
2017-04-24T07:59:42.623Z,81792
2017-04-24T08:00:24.197Z,81248
2017-04-24T08:01:04.889Z,79488
2017-04-24T08:01:45.636Z,75584
2017-04-24T08:02:26.280Z,78336
2017-04-24T08:03:07.518Z,80480
2017-04-24T08:03:48.256Z,74528
2017-04-24T08:04:29.272Z,25824
2017-04-24T08:05:10.052Z,18464
2017-04-24T08:05:50.690Z,22208
2017-04-24T08:06:31.456Z,18816
2017-04-24T08:07:12.177Z,16704
2017-04-24T08:07:54.472Z,15580
2017-04-24T08:08:35.102Z,20096
2017-04-24T08:09:15.689Z,18080
2017-04-24T08:09:56.440Z,20448
2017-04-24T08:10:37.156Z,25216
2017-04-24T08:11:17.805Z,21664
2017-04-24T08:11:58.467Z,18080
2017-04-24T08:12:39.829Z,24480
2017-04-24T08:13:20.510Z,23840
2017-04-24T08:14:01.200Z,23104
2017-04-24T08:14:41.862Z,21984
2017-04-24T08:15:22.499Z,21440
2017-04-24T08:16:03.078Z,20512
2017-04-24T08:16:43.683Z,20160
2017-04-24T08:17:24.387Z,19712
2017-04-24T08:18:05.415Z,19328
2017-04-24T08:18:46.322Z,19168
2017-04-24T08:19:26.978Z,18496
2017-04-24T08:20:07.560Z,18176
2017-04-24T08:20:48.254Z,17920
2017-04-24T08:21:28.865Z,17952
2017-04-24T08:22:09.448Z,17472
2017-04-24T08:22:50.068Z,16768
2017-04-24T08:23:30.664Z,17664
2017-04-24T08:24:11.277Z,17568
2017-04-24T08:24:51.868Z,17600
2017-04-24T08:25:32.521Z,17728
2017-04-24T08:26:13.138Z,15984
2017-04-24T08:26:53.729Z,19168
2017-04-24T08:27:34.315Z,19168
2017-04-24T08:28:14.917Z,17408
2017-04-24T08:28:55.503Z,19808
2017-04-24T08:29:36.122Z,19840
2017-04-24T08:30:16.778Z,18720
2017-04-24T08:30:57.367Z,17632
2017-04-24T08:31:38.044Z,13700
2017-04-24T08:32:18.660Z,15528
2017-04-24T08:32:59.241Z,16704
2017-04-24T08:33:39.894Z,15676
2017-04-24T08:34:20.500Z,15112
2017-04-24T08:35:01.092Z,14876
2017-04-24T08:35:41.694Z,14468
2017-04-24T08:36:22.305Z,11740
2017-04-24T08:37:02.885Z,8584
2017-04-24T08:37:43.575Z,8984
2017-04-24T08:38:24.160Z,13144
2017-04-24T08:39:04.757Z,12368
2017-04-24T08:39:45.401Z,11144
2017-04-24T08:40:26.025Z,10580
2017-04-24T08:41:06.583Z,10380
2017-04-24T08:41:47.216Z,9976
2017-04-24T08:42:27.809Z,9556
2017-04-24T08:43:08.392Z,9268
2017-04-24T08:43:48.997Z,9084
2017-04-24T08:44:29.577Z,8952
2017-04-24T08:45:10.151Z,8976
2017-04-24T08:45:50.734Z,8628
2017-04-24T08:46:31.318Z,8240
2017-04-24T08:47:11.919Z,8020
2017-04-24T08:47:52.517Z,7892
2017-04-24T08:48:33.107Z,7600
2017-04-24T08:49:13.685Z,7432
2017-04-24T08:49:54.272Z,7308
2017-04-24T08:50:34.842Z,7248
2017-04-24T08:51:15.434Z,7144
2017-04-24T08:51:56.044Z,7092
2017-04-24T08:52:36.665Z,7152
2017-04-24T08:53:17.307Z,7076
2017-04-24T08:53:57.920Z,7112
2017-04-24T08:54:38.534Z,7220
2017-04-24T08:55:19.097Z,7328
2017-04-24T08:55:59.701Z,7420
2017-04-24T08:56:40.307Z,5956
2017-04-24T08:57:20.891Z,7084
2017-04-24T08:58:01.500Z,8448
2017-04-24T08:58:42.101Z,6280
2017-04-24T08:59:22.718Z,9168
2017-04-24T09:00:03.330Z,8924
2017-04-24T09:00:43.917Z,9380
2017-04-24T09:01:24.499Z,8092
2017-04-24T09:02:05.125Z,6596
2017-04-24T09:02:45.717Z,8160
2017-04-24T09:03:26.326Z,9132
2017-04-24T09:04:06.935Z,8884
2017-04-24T09:04:47.533Z,9024
2017-04-24T09:05:28.131Z,9140
2017-04-24T09:06:08.762Z,9404
2017-04-24T09:06:49.379Z,9620
2017-04-24T09:07:29.983Z,10136
2017-04-24T09:08:10.599Z,10332
2017-04-24T09:08:51.239Z,10456
2017-04-24T09:09:31.859Z,11348
2017-04-24T09:10:12.488Z,12208
2017-04-24T09:10:53.103Z,12980
2017-04-24T09:11:33.694Z,12452
2017-04-24T09:12:14.293Z,11364
2017-04-24T09:12:54.893Z,10736
2017-04-24T09:13:35.562Z,10716
2017-04-24T09:14:16.134Z,11332
2017-04-24T09:14:56.854Z,11824
2017-04-24T09:15:37.442Z,12472
2017-04-24T09:16:18.062Z,12936
2017-04-24T09:16:58.735Z,13160
2017-04-24T09:17:39.404Z,13448
2017-04-24T09:18:20.011Z,13344
2017-04-24T09:19:00.641Z,13356
2017-04-24T09:19:41.238Z,13384